sensor_id;sensor_type;location;lat;lon;timestamp;P1;durP1;ratioP1;P2;durP2;ratioP2
20322;SDS011;10319;52.206;20.996;2024-01-25T07:29:26;13.00;;;1.60;;
20322;SDS011;10319;52.206;20.996;2024-01-25T07:31:55;8.83;;;1.30;;
20322;SDS011;10319;52.206;20.996;2024-01-25T07:34:31;13.70;;;1.90;;
20322;SDS011;10319;52.206;20.996;2024-01-25T07:37:15;10.73;;;1.50;;
20322;SDS011;10319;52.206;20.996;2024-01-25T07:39:47;9.00;;;1.30;;
20322;SDS011;10319;52.206;20.996;2024-01-25T07:42:48;12.67;;;1.60;;
20322;SDS011;10319;52.206;20.996;2024-01-25T07:45:17;13.83;;;1.60;;
20322;SDS011;10319;52.206;20.996;2024-01-25T07:47:45;13.43;;;1.67;;
20322;SDS011;10319;52.206;20.996;2024-01-25T07:50:11;13.60;;;1.50;;
20322;SDS011;10319;52.206;20.996;2024-01-25T07:55:21;16.93;;;1.93;;
20322;SDS011;10319;52.206;20.996;2024-01-25T07:57:47;8.70;;;1.17;;
20322;SDS011;10319;52.206;20.996;2024-01-25T08:00:15;12.93;;;1.83;;
20322;SDS011;10319;52.206;20.996;2024-01-25T08:15:03;8.73;;;1.00;;
20322;SDS011;10319;52.206;20.996;2024-01-25T08:18:15;7.23;;;1.20;;
20322;SDS011;10319;52.206;20.996;2024-01-25T09:39:42;6.17;;;1.07;;
20322;SDS011;10319;52.206;20.996;2024-01-25T09:49:43;3.70;;;0.60;;
20322;SDS011;10319;52.206;20.996;2024-01-25T10:10:07;4.87;;;0.70;;
20322;SDS011;10319;52.206;20.996;2024-01-25T10:12:33;6.00;;;1.00;;
20322;SDS011;10319;52.206;20.996;2024-01-25T10:15:07;4.43;;;1.10;;
20322;SDS011;10319;52.206;20.996;2024-01-25T10:17:35;3.80;;;0.73;;
20322;SDS011;10319;52.206;20.996;2024-01-25T11:21:28;3.07;;;0.77;;
20322;SDS011;10319;52.206;20.996;2024-01-25T11:37:20;4.50;;;0.60;;
20322;SDS011;10319;52.206;20.996;2024-01-25T11:43:12;2.43;;;0.90;;
20322;SDS011;10319;52.206;20.996;2024-01-25T11:45:39;4.23;;;0.90;;
20322;SDS011;10319;52.206;20.996;2024-01-25T11:48:27;4.03;;;0.90;;
20322;SDS011;10319;52.206;20.996;2024-01-25T12:18:40;5.87;;;0.90;;
20322;SDS011;10319;52.206;20.996;2024-01-25T13:10:35;0.90;;;0.50;;
20322;SDS011;10319;52.206;20.996;2024-01-25T13:13:00;3.27;;;0.80;;
20322;SDS011;10319;52.206;20.996;2024-01-25T13:19:20;2.30;;;0.70;;
20322;SDS011;10319;52.206;20.996;2024-01-25T13:24:51;4.73;;;1.00;;
20322;SDS011;10319;52.206;20.996;2024-01-25T14:56:02;8.23;;;1.77;;
20322;SDS011;10319;52.206;20.996;2024-01-25T14:58:36;9.40;;;1.70;;
20322;SDS011;10319;52.206;20.996;2024-01-25T15:13:07;6.40;;;1.30;;
20322;SDS011;10319;52.206;20.996;2024-01-25T15:15:34;4.57;;;1.30;;
20322;SDS011;10319;52.206;20.996;2024-01-25T15:18:56;3.90;;;0.90;;
20322;SDS011;10319;52.206;20.996;2024-01-25T16:03:48;7.37;;;1.40;;
20322;SDS011;10319;52.206;20.996;2024-01-25T16:06:13;4.77;;;1.20;;
20322;SDS011;10319;52.206;20.996;2024-01-25T16:17:48;6.40;;;1.57;;
20322;SDS011;10319;52.206;20.996;2024-01-25T16:20:14;5.53;;;1.13;;
20322;SDS011;10319;52.206;20.996;2024-01-25T16:53:42;7.80;;;1.83;;
20322;SDS011;10319;52.206;20.996;2024-01-25T16:56:08;4.43;;;1.20;;
20322;SDS011;10319;52.206;20.996;2024-01-25T16:58:41;6.17;;;1.53;;
20322;SDS011;10319;52.206;20.996;2024-01-25T17:01:20;5.67;;;1.33;;
20322;SDS011;10319;52.206;20.996;2024-01-25T17:30:08;5.13;;;1.13;;
20322;SDS011;10319;52.206;20.996;2024-01-25T17:32:45;3.87;;;0.90;;
20322;SDS011;10319;52.206;20.996;2024-01-25T17:35:12;4.20;;;1.17;;
20322;SDS011;10319;52.206;20.996;2024-01-25T17:37:38;3.40;;;0.90;;
20322;SDS011;10319;52.206;20.996;2024-01-25T17:40:05;4.53;;;1.20;;
20322;SDS011;10319;52.206;20.996;2024-01-25T17:42:37;6.73;;;1.20;;
20322;SDS011;10319;52.206;20.996;2024-01-25T17:45:08;5.70;;;1.00;;
20322;SDS011;10319;52.206;20.996;2024-01-25T17:48:13;5.97;;;1.13;;
20322;SDS011;10319;52.206;20.996;2024-01-25T17:50:38;4.50;;;0.87;;
20322;SDS011;10319;52.206;20.996;2024-01-25T17:53:03;4.27;;;0.80;;
20322;SDS011;10319;52.206;20.996;2024-01-25T17:55:29;5.33;;;0.97;;
20322;SDS011;10319;52.206;20.996;2024-01-25T17:57:55;2.93;;;0.80;;
20322;SDS011;10319;52.206;20.996;2024-01-25T18:00:25;1.63;;;0.50;;
20322;SDS011;10319;52.206;20.996;2024-01-25T18:03:30;1.70;;;0.57;;
20322;SDS011;10319;52.206;20.996;2024-01-25T18:06:26;5.33;;;0.90;;
20322;SDS011;10319;52.206;20.996;2024-01-25T18:08:58;5.20;;;1.00;;
20322;SDS011;10319;52.206;20.996;2024-01-25T18:11:24;1.83;;;0.50;;
20322;SDS011;10319;52.206;20.996;2024-01-25T18:13:49;4.20;;;0.77;;
20322;SDS011;10319;52.206;20.996;2024-01-25T18:16:17;4.43;;;0.90;;
20322;SDS011;10319;52.206;20.996;2024-01-25T18:18:42;1.83;;;0.60;;
20322;SDS011;10319;52.206;20.996;2024-01-25T18:21:08;3.23;;;0.77;;
20322;SDS011;10319;52.206;20.996;2024-01-25T18:23:33;2.50;;;0.80;;
20322;SDS011;10319;52.206;20.996;2024-01-25T18:25:59;3.17;;;1.00;;
20322;SDS011;10319;52.206;20.996;2024-01-25T18:28:26;4.17;;;1.10;;
20322;SDS011;10319;52.206;20.996;2024-01-25T18:30:54;5.73;;;1.10;;
20322;SDS011;10319;52.206;20.996;2024-01-25T18:33:22;3.17;;;1.00;;
20322;SDS011;10319;52.206;20.996;2024-01-25T18:35:47;4.27;;;1.20;;
20322;SDS011;10319;52.206;20.996;2024-01-25T18:38:15;6.70;;;1.30;;
20322;SDS011;10319;52.206;20.996;2024-01-25T18:40:50;5.77;;;1.33;;
20322;SDS011;10319;52.206;20.996;2024-01-25T18:43:15;4.70;;;1.20;;
20322;SDS011;10319;52.206;20.996;2024-01-25T18:45:43;5.80;;;1.30;;
20322;SDS011;10319;52.206;20.996;2024-01-25T18:48:08;6.40;;;1.50;;
20322;SDS011;10319;52.206;20.996;2024-01-25T18:50:34;5.20;;;1.50;;
20322;SDS011;10319;52.206;20.996;2024-01-25T18:52:59;4.97;;;1.17;;
20322;SDS011;10319;52.206;20.996;2024-01-25T18:55:24;4.83;;;1.30;;
20322;SDS011;10319;52.206;20.996;2024-01-25T18:57:50;6.43;;;1.40;;
20322;SDS011;10319;52.206;20.996;2024-01-25T19:00:15;4.20;;;1.10;;
20322;SDS011;10319;52.206;20.996;2024-01-25T19:02:43;6.30;;;1.30;;
20322;SDS011;10319;52.206;20.996;2024-01-25T19:05:09;4.43;;;1.17;;
20322;SDS011;10319;52.206;20.996;2024-01-25T19:07:44;8.17;;;1.30;;
20322;SDS011;10319;52.206;20.996;2024-01-25T19:10:12;4.10;;;1.00;;
20322;SDS011;10319;52.206;20.996;2024-01-25T19:12:40;5.13;;;1.20;;
20322;SDS011;10319;52.206;20.996;2024-01-25T19:15:13;6.53;;;1.30;;
20322;SDS011;10319;52.206;20.996;2024-01-25T19:17:48;5.33;;;1.30;;
20322;SDS011;10319;52.206;20.996;2024-01-25T19:20:16;5.47;;;1.20;;
20322;SDS011;10319;52.206;20.996;2024-01-25T19:22:42;7.77;;;1.30;;
20322;SDS011;10319;52.206;20.996;2024-01-25T19:25:07;6.30;;;1.43;;
20322;SDS011;10319;52.206;20.996;2024-01-25T19:27:35;6.90;;;1.60;;
20322;SDS011;10319;52.206;20.996;2024-01-25T19:30:02;4.27;;;1.30;;
20322;SDS011;10319;52.206;20.996;2024-01-25T19:32:28;6.10;;;1.50;;
20322;SDS011;10319;52.206;20.996;2024-01-25T19:34:58;8.60;;;1.77;;
20322;SDS011;10319;52.206;20.996;2024-01-25T19:37:23;5.97;;;1.67;;
20322;SDS011;10319;52.206;20.996;2024-01-25T19:39:49;8.70;;;1.80;;
20322;SDS011;10319;52.206;20.996;2024-01-25T19:42:17;7.20;;;1.57;;
20322;SDS011;10319;52.206;20.996;2024-01-25T19:44:42;7.10;;;1.77;;
20322;SDS011;10319;52.206;20.996;2024-01-25T19:47:10;5.53;;;1.73;;
20322;SDS011;10319;52.206;20.996;2024-01-25T19:49:36;7.00;;;1.60;;
20322;SDS011;10319;52.206;20.996;2024-01-25T19:52:08;7.57;;;1.73;;
20322;SDS011;10319;52.206;20.996;2024-01-25T19:54:33;7.90;;;1.80;;
20322;SDS011;10319;52.206;20.996;2024-01-25T19:57:01;7.33;;;1.70;;
20322;SDS011;10319;52.206;20.996;2024-01-25T19:59:26;7.80;;;1.80;;
20322;SDS011;10319;52.206;20.996;2024-01-25T20:01:54;9.13;;;2.03;;
20322;SDS011;10319;52.206;20.996;2024-01-25T20:04:19;5.37;;;1.50;;
20322;SDS011;10319;52.206;20.996;2024-01-25T20:06:45;7.87;;;1.77;;
20322;SDS011;10319;52.206;20.996;2024-01-25T20:09:10;5.53;;;1.60;;
20322;SDS011;10319;52.206;20.996;2024-01-25T20:11:36;8.13;;;1.63;;
20322;SDS011;10319;52.206;20.996;2024-01-25T20:14:02;6.87;;;1.67;;
20322;SDS011;10319;52.206;20.996;2024-01-25T20:16:27;7.83;;;1.83;;
20322;SDS011;10319;52.206;20.996;2024-01-25T20:18:55;8.37;;;1.80;;
20322;SDS011;10319;52.206;20.996;2024-01-25T20:21:23;7.37;;;1.90;;
20322;SDS011;10319;52.206;20.996;2024-01-25T20:23:48;7.67;;;1.80;;
20322;SDS011;10319;52.206;20.996;2024-01-25T20:26:15;6.97;;;1.60;;
20322;SDS011;10319;52.206;20.996;2024-01-25T20:28:42;7.00;;;1.60;;
20322;SDS011;10319;52.206;20.996;2024-01-25T20:31:07;6.77;;;1.53;;
20322;SDS011;10319;52.206;20.996;2024-01-25T20:33:33;6.97;;;1.80;;
20322;SDS011;10319;52.206;20.996;2024-01-25T20:35:58;6.00;;;1.60;;
20322;SDS011;10319;52.206;20.996;2024-01-25T20:38:23;8.07;;;1.60;;
20322;SDS011;10319;52.206;20.996;2024-01-25T20:40:49;5.53;;;1.47;;
20322;SDS011;10319;52.206;20.996;2024-01-25T20:43:14;7.53;;;1.60;;
20322;SDS011;10319;52.206;20.996;2024-01-25T20:45:39;7.13;;;2.00;;
20322;SDS011;10319;52.206;20.996;2024-01-25T20:48:04;6.47;;;1.70;;
20322;SDS011;10319;52.206;20.996;2024-01-25T20:50:29;6.37;;;1.50;;
20322;SDS011;10319;52.206;20.996;2024-01-25T20:52:55;5.80;;;1.67;;
20322;SDS011;10319;52.206;20.996;2024-01-25T20:55:20;9.10;;;1.97;;
20322;SDS011;10319;52.206;20.996;2024-01-25T20:57:45;8.67;;;2.00;;
20322;SDS011;10319;52.206;20.996;2024-01-25T21:00:10;8.57;;;1.50;;
20322;SDS011;10319;52.206;20.996;2024-01-25T21:02:36;7.50;;;1.80;;
20322;SDS011;10319;52.206;20.996;2024-01-25T21:05:01;4.97;;;1.40;;
20322;SDS011;10319;52.206;20.996;2024-01-25T21:07:27;6.00;;;1.70;;
20322;SDS011;10319;52.206;20.996;2024-01-25T21:09:52;5.83;;;1.60;;
20322;SDS011;10319;52.206;20.996;2024-01-25T21:12:18;8.37;;;1.80;;
20322;SDS011;10319;52.206;20.996;2024-01-25T21:14:43;8.43;;;1.60;;
20322;SDS011;10319;52.206;20.996;2024-01-25T21:17:08;6.13;;;1.57;;
20322;SDS011;10319;52.206;20.996;2024-01-25T21:19:33;6.07;;;1.40;;
20322;SDS011;10319;52.206;20.996;2024-01-25T21:22:05;9.63;;;1.90;;
20322;SDS011;10319;52.206;20.996;2024-01-25T21:24:30;6.60;;;1.70;;
20322;SDS011;10319;52.206;20.996;2024-01-25T21:26:55;7.77;;;1.87;;
20322;SDS011;10319;52.206;20.996;2024-01-25T21:29:21;5.97;;;1.40;;
20322;SDS011;10319;52.206;20.996;2024-01-25T21:31:47;5.47;;;1.40;;
20322;SDS011;10319;52.206;20.996;2024-01-25T21:34:12;7.63;;;1.73;;
20322;SDS011;10319;52.206;20.996;2024-01-25T21:36:37;7.03;;;1.50;;
20322;SDS011;10319;52.206;20.996;2024-01-25T21:39:03;8.07;;;1.67;;
20322;SDS011;10319;52.206;20.996;2024-01-25T21:41:28;6.73;;;1.70;;
20322;SDS011;10319;52.206;20.996;2024-01-25T21:43:53;4.97;;;1.30;;
20322;SDS011;10319;52.206;20.996;2024-01-25T21:46:18;5.53;;;1.40;;
20322;SDS011;10319;52.206;20.996;2024-01-25T21:48:43;4.40;;;1.30;;
20322;SDS011;10319;52.206;20.996;2024-01-25T21:51:09;7.97;;;1.57;;
20322;SDS011;10319;52.206;20.996;2024-01-25T21:53:35;5.40;;;1.47;;
20322;SDS011;10319;52.206;20.996;2024-01-25T21:56:01;6.87;;;1.67;;
20322;SDS011;10319;52.206;20.996;2024-01-25T21:58:26;6.30;;;1.47;;
20322;SDS011;10319;52.206;20.996;2024-01-25T22:00:51;5.37;;;1.33;;
20322;SDS011;10319;52.206;20.996;2024-01-25T22:03:17;7.10;;;1.50;;
20322;SDS011;10319;52.206;20.996;2024-01-25T22:05:42;6.33;;;1.50;;
20322;SDS011;10319;52.206;20.996;2024-01-25T22:08:07;5.57;;;1.90;;
20322;SDS011;10319;52.206;20.996;2024-01-25T22:10:33;5.53;;;1.30;;
20322;SDS011;10319;52.206;20.996;2024-01-25T22:12:58;6.03;;;1.43;;
20322;SDS011;10319;52.206;20.996;2024-01-25T22:15:23;5.33;;;1.30;;
20322;SDS011;10319;52.206;20.996;2024-01-25T22:17:48;4.37;;;1.20;;
20322;SDS011;10319;52.206;20.996;2024-01-25T22:20:14;8.07;;;1.43;;
20322;SDS011;10319;52.206;20.996;2024-01-25T22:22:39;6.90;;;1.57;;
20322;SDS011;10319;52.206;20.996;2024-01-25T22:25:05;7.07;;;1.40;;
20322;SDS011;10319;52.206;20.996;2024-01-25T22:27:30;7.10;;;1.67;;
20322;SDS011;10319;52.206;20.996;2024-01-25T22:29:55;6.07;;;1.50;;
20322;SDS011;10319;52.206;20.996;2024-01-25T22:32:20;5.63;;;1.40;;
20322;SDS011;10319;52.206;20.996;2024-01-25T22:34:45;6.47;;;1.40;;
20322;SDS011;10319;52.206;20.996;2024-01-25T22:37:11;6.20;;;1.33;;
20322;SDS011;10319;52.206;20.996;2024-01-25T22:39:36;6.83;;;1.63;;
20322;SDS011;10319;52.206;20.996;2024-01-25T22:42:01;5.07;;;1.40;;
20322;SDS011;10319;52.206;20.996;2024-01-25T22:44:27;4.60;;;1.27;;
20322;SDS011;10319;52.206;20.996;2024-01-25T22:46:52;5.87;;;1.43;;
20322;SDS011;10319;52.206;20.996;2024-01-25T22:49:20;5.77;;;1.40;;
20322;SDS011;10319;52.206;20.996;2024-01-25T22:51:45;6.10;;;1.03;;
20322;SDS011;10319;52.206;20.996;2024-01-25T22:54:11;4.73;;;1.10;;
20322;SDS011;10319;52.206;20.996;2024-01-25T22:56:36;5.10;;;1.33;;
20322;SDS011;10319;52.206;20.996;2024-01-25T22:59:03;6.50;;;1.50;;
20322;SDS011;10319;52.206;20.996;2024-01-25T23:01:28;4.07;;;1.27;;
20322;SDS011;10319;52.206;20.996;2024-01-25T23:03:53;4.47;;;1.20;;
20322;SDS011;10319;52.206;20.996;2024-01-25T23:06:18;5.13;;;1.20;;
20322;SDS011;10319;52.206;20.996;2024-01-25T23:08:43;6.50;;;1.40;;
20322;SDS011;10319;52.206;20.996;2024-01-25T23:11:09;5.27;;;1.47;;
20322;SDS011;10319;52.206;20.996;2024-01-25T23:13:34;5.93;;;1.60;;
20322;SDS011;10319;52.206;20.996;2024-01-25T23:16:00;6.93;;;1.70;;
20322;SDS011;10319;52.206;20.996;2024-01-25T23:18:25;4.70;;;1.20;;
20322;SDS011;10319;52.206;20.996;2024-01-25T23:20:50;7.60;;;1.60;;
20322;SDS011;10319;52.206;20.996;2024-01-25T23:23:15;7.13;;;1.50;;
20322;SDS011;10319;52.206;20.996;2024-01-25T23:25:41;5.70;;;1.50;;
20322;SDS011;10319;52.206;20.996;2024-01-25T23:28:08;4.73;;;1.23;;
20322;SDS011;10319;52.206;20.996;2024-01-25T23:30:33;5.70;;;1.50;;
20322;SDS011;10319;52.206;20.996;2024-01-25T23:32:58;3.00;;;1.00;;
20322;SDS011;10319;52.206;20.996;2024-01-25T23:35:24;4.17;;;1.20;;
20322;SDS011;10319;52.206;20.996;2024-01-25T23:37:49;8.03;;;1.53;;
20322;SDS011;10319;52.206;20.996;2024-01-25T23:40:14;6.97;;;1.50;;
20322;SDS011;10319;52.206;20.996;2024-01-25T23:42:41;5.17;;;1.40;;
20322;SDS011;10319;52.206;20.996;2024-01-25T23:45:07;4.30;;;1.13;;
20322;SDS011;10319;52.206;20.996;2024-01-25T23:47:32;5.87;;;1.40;;
20322;SDS011;10319;52.206;20.996;2024-01-25T23:49:57;4.17;;;1.23;;
20322;SDS011;10319;52.206;20.996;2024-01-25T23:52:23;4.37;;;1.20;;
20322;SDS011;10319;52.206;20.996;2024-01-25T23:54:48;4.67;;;1.53;;
20322;SDS011;10319;52.206;20.996;2024-01-25T23:57:13;4.97;;;1.37;;
20322;SDS011;10319;52.206;20.996;2024-01-25T23:59:38;5.90;;;1.20;;
